createdAt,value
2022-09-30T00:00:01.102Z,8
2022-09-30T00:01:05.956Z,8
2022-09-30T00:02:02.225Z,8
2022-09-30T00:03:01.275Z,8
2022-09-30T00:04:01.052Z,8
2022-09-30T00:05:01.124Z,8
2022-09-30T00:06:09.356Z,8.1
2022-09-30T00:07:01.719Z,8
2022-09-30T00:08:01.062Z,8.1
2022-09-30T00:09:01.089Z,8.1
2022-09-30T00:10:01.752Z,8.1
2022-09-30T00:11:11.296Z,8.1
2022-09-30T00:12:02.080Z,8
2022-09-30T00:13:02.089Z,8
2022-09-30T00:14:01.207Z,8
2022-09-30T00:15:01.098Z,8
2022-09-30T00:16:13.744Z,8.1
2022-09-30T00:17:01.683Z,8.1
2022-09-30T00:18:01.158Z,8.1
2022-09-30T00:19:01.525Z,8
2022-09-30T00:20:01.794Z,8
2022-09-30T00:21:15.302Z,8
2022-09-30T00:22:01.097Z,8
2022-09-30T00:23:01.546Z,8
2022-09-30T00:24:01.046Z,8
2022-09-30T00:25:01.054Z,8
2022-09-30T00:26:01.233Z,8
2022-09-30T00:27:02.396Z,8
2022-09-30T00:28:01.232Z,8
2022-09-30T00:29:01.404Z,8
2022-09-30T00:30:02.105Z,8
2022-09-30T00:31:01.769Z,8
2022-09-30T00:32:01.344Z,8
2022-09-30T00:33:01.133Z,8
2022-09-30T00:34:01.176Z,8
2022-09-30T00:35:01.474Z,7.9
2022-09-30T00:36:01.308Z,7.9
2022-09-30T00:37:01.976Z,7.9
2022-09-30T00:38:02.018Z,7.9
2022-09-30T00:39:01.171Z,7.9
2022-09-30T00:40:01.459Z,7.8
2022-09-30T00:41:01.171Z,7.8
2022-09-30T00:42:01.083Z,7.8
2022-09-30T00:43:01.138Z,7.8
2022-09-30T00:44:01.093Z,7.8
2022-09-30T00:45:01.041Z,7.8
2022-09-30T00:46:01.041Z,7.8
2022-09-30T00:47:01.177Z,7.7
2022-09-30T00:48:01.143Z,7.7
2022-09-30T00:49:01.498Z,7.6
2022-09-30T00:50:01.118Z,7.6
2022-09-30T00:51:01.116Z,7.6
2022-09-30T00:52:01.141Z,7.5
2022-09-30T00:53:01.159Z,7.5
2022-09-30T00:54:01.150Z,7.6
2022-09-30T00:55:01.158Z,7.6
2022-09-30T00:56:01.159Z,7.6
2022-09-30T00:57:01.875Z,7.6
2022-09-30T00:58:02.076Z,7.6
2022-09-30T00:59:01.038Z,7.6
2022-09-30T01:00:01.093Z,7.6
2022-09-30T01:01:01.175Z,7.6
2022-09-30T01:02:01.171Z,7.6
2022-09-30T01:03:01.951Z,7.6
2022-09-30T01:04:01.140Z,7.6
2022-09-30T01:05:01.416Z,7.6
2022-09-30T01:06:01.286Z,7.6
2022-09-30T01:07:01.137Z,7.6
2022-09-30T01:08:01.911Z,7.6
2022-09-30T01:09:01.129Z,7.6
2022-09-30T01:10:01.150Z,7.6
2022-09-30T01:11:05.828Z,7.6
2022-09-30T01:12:01.438Z,7.6
2022-09-30T01:13:01.112Z,7.6
2022-09-30T01:14:01.077Z,7.7
2022-09-30T01:15:01.233Z,7.7
2022-09-30T01:16:01.143Z,7.7
2022-09-30T01:17:01.114Z,7.6
2022-09-30T01:18:01.140Z,7.6
2022-09-30T01:19:01.152Z,7.7
2022-09-30T01:20:01.509Z,7.7
2022-09-30T01:21:01.130Z,7.6
2022-09-30T01:22:01.141Z,7.6
2022-09-30T01:23:01.956Z,7.6
2022-09-30T01:24:01.047Z,7.6
2022-09-30T01:25:01.040Z,7.6
2022-09-30T01:26:01.433Z,7.6
2022-09-30T01:27:01.071Z,7.6
2022-09-30T01:28:01.760Z,7.6
2022-09-30T01:29:01.085Z,7.6
2022-09-30T01:30:01.772Z,7.6
2022-09-30T01:31:02.130Z,7.6
2022-09-30T01:32:01.277Z,7.6
2022-09-30T01:33:01.895Z,7.6
2022-09-30T01:34:01.106Z,7.6
2022-09-30T01:35:01.097Z,7.6
2022-09-30T01:36:01.108Z,7.6
2022-09-30T01:37:04.072Z,7.5
2022-09-30T01:38:01.141Z,7.5
2022-09-30T01:39:01.059Z,7.5
2022-09-30T01:40:01.183Z,7.5
2022-09-30T01:41:01.466Z,7.5
2022-09-30T01:42:07.002Z,7.5
2022-09-30T01:43:01.318Z,7.5
2022-09-30T01:44:01.958Z,7.5
2022-09-30T01:45:01.979Z,7.5
2022-09-30T01:46:01.089Z,7.5
2022-09-30T01:47:09.851Z,7.5
2022-09-30T01:48:01.117Z,7.5
2022-09-30T01:49:01.058Z,7.5
2022-09-30T01:50:01.470Z,7.4
2022-09-30T01:51:01.102Z,7.4
2022-09-30T01:52:13.653Z,7.3
2022-09-30T01:53:01.170Z,7.3
2022-09-30T01:54:02.458Z,7.3
2022-09-30T01:55:01.380Z,7.3
2022-09-30T01:56:02.567Z,7.3
2022-09-30T01:57:16.483Z,7.2
2022-09-30T01:58:00.529Z,7.2
2022-09-30T01:59:00.094Z,7.2
2022-09-30T01:59:59.723Z,7.2
2022-09-30T02:01:03.155Z,7.1
2022-09-30T02:02:01.938Z,7.1
2022-09-30T02:03:01.111Z,7.1
2022-09-30T02:04:01.061Z,7.1
2022-09-30T02:05:01.305Z,7.1
2022-09-30T02:06:01.481Z,7.1
2022-09-30T02:07:01.512Z,7.1
2022-09-30T02:08:01.124Z,7.1
2022-09-30T02:09:00.907Z,7.1
2022-09-30T02:10:00.614Z,7.1
2022-09-30T02:11:00.313Z,7.2
2022-09-30T02:12:00.001Z,7.2
2022-09-30T02:12:59.758Z,7.3
2022-09-30T02:14:01.433Z,7.3
2022-09-30T02:15:01.165Z,7.3
2022-09-30T02:16:08.074Z,7.3
2022-09-30T02:17:01.064Z,7.3
2022-09-30T02:18:01.173Z,7.3
2022-09-30T02:19:01.100Z,7.3
2022-09-30T02:20:01.076Z,7.3
2022-09-30T02:21:01.223Z,7.2
2022-09-30T02:22:01.130Z,7.2
2022-09-30T02:23:01.500Z,7.1
2022-09-30T02:24:01.036Z,7.1
2022-09-30T02:25:01.117Z,7.1
2022-09-30T02:26:01.118Z,7
2022-09-30T02:27:01.118Z,7.1
2022-09-30T02:28:01.155Z,7
2022-09-30T02:29:01.149Z,7
2022-09-30T02:30:01.394Z,7
2022-09-30T02:31:01.474Z,7
2022-09-30T02:32:01.417Z,6.9
2022-09-30T02:33:02.252Z,7
2022-09-30T02:34:02.101Z,7
2022-09-30T02:35:02.190Z,7
2022-09-30T02:36:01.096Z,7
2022-09-30T02:37:01.101Z,7
2022-09-30T02:38:01.125Z,7
2022-09-30T02:39:01.140Z,6.9
2022-09-30T02:40:01.219Z,6.9
2022-09-30T02:41:02.293Z,6.9
2022-09-30T02:42:01.045Z,6.9
2022-09-30T02:43:01.067Z,7
2022-09-30T02:44:01.150Z,7
2022-09-30T02:45:01.155Z,7
2022-09-30T02:46:01.174Z,7
2022-09-30T02:47:01.845Z,7
2022-09-30T02:48:01.891Z,7
2022-09-30T02:49:01.225Z,7
2022-09-30T02:50:01.882Z,7
2022-09-30T02:51:01.461Z,7
2022-09-30T02:52:01.122Z,7
2022-09-30T02:53:00.924Z,6.9
2022-09-30T02:54:01.113Z,7
2022-09-30T02:55:01.118Z,6.9
2022-09-30T02:56:01.111Z,7
2022-09-30T02:57:01.141Z,7
2022-09-30T02:58:01.205Z,7
2022-09-30T02:59:00.805Z,7
2022-09-30T03:00:03.172Z,7
2022-09-30T03:01:02.278Z,7
2022-09-30T03:02:01.836Z,7
2022-09-30T03:03:01.064Z,7
2022-09-30T03:04:01.129Z,7
2022-09-30T03:05:01.077Z,7
2022-09-30T03:06:01.747Z,7
2022-09-30T03:07:02.089Z,7
2022-09-30T03:08:02.107Z,7
2022-09-30T03:09:01.142Z,7
2022-09-30T03:10:01.378Z,7
2022-09-30T03:11:01.114Z,7
2022-09-30T03:12:01.132Z,7
2022-09-30T03:13:01.183Z,6.9
2022-09-30T03:14:00.819Z,6.8
2022-09-30T03:15:00.806Z,6.8
2022-09-30T03:16:00.571Z,6.8
2022-09-30T03:17:00.228Z,6.8
2022-09-30T03:18:02.633Z,6.8
2022-09-30T03:19:01.055Z,6.8
2022-09-30T03:20:01.071Z,6.8
2022-09-30T03:21:01.073Z,6.8
2022-09-30T03:22:01.068Z,6.9
2022-09-30T03:23:05.988Z,6.9
2022-09-30T03:24:01.193Z,6.9
2022-09-30T03:25:01.087Z,6.9
2022-09-30T03:26:01.103Z,6.9
2022-09-30T03:27:01.106Z,7
2022-09-30T03:28:08.432Z,7
2022-09-30T03:29:01.813Z,7
2022-09-30T03:30:01.124Z,7
2022-09-30T03:31:01.215Z,7
2022-09-30T03:32:01.130Z,7
2022-09-30T03:33:11.539Z,7
2022-09-30T03:34:00.422Z,7
2022-09-30T03:35:00.016Z,7
2022-09-30T03:35:59.630Z,7
2022-09-30T03:37:04.171Z,7
2022-09-30T03:38:13.603Z,7
2022-09-30T03:39:01.386Z,7
2022-09-30T03:40:02.105Z,7
2022-09-30T03:41:02.106Z,7
2022-09-30T03:42:01.322Z,7
2022-09-30T03:43:16.325Z,7
2022-09-30T03:44:01.001Z,7
2022-09-30T03:45:01.037Z,7
2022-09-30T03:46:01.132Z,6.9
2022-09-30T03:47:01.277Z,6.9
2022-09-30T03:48:01.172Z,6.9
2022-09-30T03:49:01.650Z,6.8
2022-09-30T03:50:01.050Z,6.8
2022-09-30T03:51:01.134Z,6.7
2022-09-30T03:52:01.769Z,6.6
2022-09-30T03:53:01.472Z,6.6
2022-09-30T03:54:01.168Z,6.6
2022-09-30T03:55:00.936Z,6.6
2022-09-30T03:56:01.239Z,6.5
2022-09-30T03:57:01.094Z,6.5
2022-09-30T03:58:01.057Z,6.5
2022-09-30T03:59:03.768Z,6.4
2022-09-30T04:00:01.119Z,6.4
2022-09-30T04:01:01.423Z,6.3
2022-09-30T04:02:01.591Z,6.3
2022-09-30T04:03:01.172Z,6.3
2022-09-30T04:04:01.139Z,6.3
2022-09-30T04:05:01.138Z,6.3
2022-09-30T04:06:01.063Z,6.3
2022-09-30T04:07:01.060Z,6.3
2022-09-30T04:08:01.059Z,6.3
2022-09-30T04:09:01.118Z,6.3
2022-09-30T04:10:01.269Z,6.3
2022-09-30T04:11:01.154Z,6.3
2022-09-30T04:12:01.099Z,6.3
2022-09-30T04:13:01.111Z,6.3
2022-09-30T04:14:01.103Z,6.3
2022-09-30T04:15:01.108Z,6.3
2022-09-30T04:16:01.189Z,6.2
2022-09-30T04:17:01.132Z,6.2
2022-09-30T04:18:01.149Z,6.2
2022-09-30T04:19:01.544Z,6.2
2022-09-30T04:20:01.246Z,6.2
2022-09-30T04:21:01.172Z,6.2
2022-09-30T04:22:01.053Z,6.2
2022-09-30T04:23:01.186Z,6.2
2022-09-30T04:24:01.060Z,6.1
2022-09-30T04:25:01.070Z,6.2
2022-09-30T04:26:01.074Z,6.1
2022-09-30T04:27:01.376Z,6.1
2022-09-30T04:28:01.385Z,6.1
2022-09-30T04:29:02.108Z,6.2
2022-09-30T04:30:02.609Z,6.2
2022-09-30T04:31:00.958Z,6.2
2022-09-30T04:32:01.127Z,6.3
2022-09-30T04:33:01.139Z,6.3
2022-09-30T04:34:00.880Z,6.3
2022-09-30T04:35:01.132Z,6.4
2022-09-30T04:36:01.169Z,6.5
2022-09-30T04:37:00.947Z,6.5
2022-09-30T04:38:01.908Z,6.5
2022-09-30T04:39:01.440Z,6.5
2022-09-30T04:40:01.168Z,6.5
2022-09-30T04:41:01.878Z,6.5
2022-09-30T04:42:01.403Z,6.5
2022-09-30T04:43:01.110Z,6.5
2022-09-30T04:44:01.416Z,6.5
2022-09-30T04:45:01.110Z,6.5
2022-09-30T04:46:01.222Z,6.4
2022-09-30T04:47:02.647Z,6.4
2022-09-30T04:48:01.132Z,6.3
2022-09-30T04:49:01.049Z,6.3
2022-09-30T04:50:00.909Z,6.3
2022-09-30T04:51:01.166Z,6.3
2022-09-30T04:52:01.139Z,6.3
2022-09-30T04:53:01.053Z,6.3
2022-09-30T04:54:01.161Z,6.3
2022-09-30T04:55:01.067Z,6.3
2022-09-30T04:56:01.075Z,6.3
2022-09-30T04:57:01.049Z,6.3
2022-09-30T04:58:01.058Z,6.3
2022-09-30T04:59:01.198Z,6.2
2022-09-30T05:00:01.536Z,6.2
2022-09-30T05:01:02.313Z,6.2
2022-09-30T05:02:01.223Z,6.2
2022-09-30T05:03:00.525Z,6.3
2022-09-30T05:04:04.184Z,6.3
2022-09-30T05:05:01.130Z,6.3
2022-09-30T05:06:01.154Z,6.3
2022-09-30T05:07:01.147Z,6.3
2022-09-30T05:08:01.155Z,6.3
2022-09-30T05:09:06.010Z,6.3
2022-09-30T05:10:01.182Z,6.3
2022-09-30T05:11:01.108Z,6.3
2022-09-30T05:12:01.450Z,6.3
2022-09-30T05:13:01.094Z,6.3
2022-09-30T05:14:09.953Z,6.3
2022-09-30T05:15:01.042Z,6.3
2022-09-30T05:16:00.635Z,6.3
2022-09-30T05:17:00.442Z,6.3
2022-09-30T05:18:00.488Z,6.3
2022-09-30T05:19:10.792Z,6.3
2022-09-30T05:20:02.138Z,6.3
2022-09-30T05:21:01.806Z,6.3
2022-09-30T05:22:02.165Z,6.3
2022-09-30T05:23:01.431Z,6.3
2022-09-30T05:24:14.201Z,6.3
2022-09-30T05:25:01.073Z,6.3
2022-09-30T05:26:01.072Z,6.3
2022-09-30T05:27:01.172Z,6.3
2022-09-30T05:28:02.072Z,6.3
2022-09-30T05:29:15.903Z,6.3
2022-09-30T05:30:01.475Z,6.3
2022-09-30T05:31:01.274Z,6.3
2022-09-30T05:32:01.344Z,6.3
2022-09-30T05:33:02.114Z,6.2
2022-09-30T05:34:01.102Z,6.2
2022-09-30T05:35:01.128Z,6.2
2022-09-30T05:36:01.721Z,6.1
2022-09-30T05:37:02.530Z,6.1
2022-09-30T05:38:01.818Z,6.1
2022-09-30T05:39:01.213Z,6.1
2022-09-30T05:40:01.151Z,6.1
2022-09-30T05:41:01.235Z,6.2
2022-09-30T05:42:01.221Z,6.2
2022-09-30T05:43:01.235Z,6.3
2022-09-30T05:44:01.445Z,6.3
2022-09-30T05:45:01.090Z,6.3
2022-09-30T05:46:01.089Z,6.3
2022-09-30T05:47:01.178Z,6.3
2022-09-30T05:48:01.123Z,6.4
2022-09-30T05:49:01.107Z,6.4
2022-09-30T05:50:01.143Z,6.4
2022-09-30T05:51:01.050Z,6.3
2022-09-30T05:52:01.180Z,6.3
2022-09-30T05:53:01.516Z,6.3
2022-09-30T05:54:01.065Z,6.3
2022-09-30T05:55:01.048Z,6.2
2022-09-30T05:56:01.162Z,6.2
2022-09-30T05:57:00.846Z,6.3
2022-09-30T05:58:00.441Z,6.3
2022-09-30T05:59:00.025Z,6.3
2022-09-30T05:59:59.734Z,6.3
2022-09-30T06:01:08.013Z,6.3
2022-09-30T06:02:02.420Z,6.3
2022-09-30T06:03:01.193Z,6.3
2022-09-30T06:04:01.284Z,6.3
2022-09-30T06:05:01.112Z,6.3
2022-09-30T06:06:01.128Z,6.3
2022-09-30T06:07:01.160Z,6.3
2022-09-30T06:08:01.171Z,6.3
2022-09-30T06:09:01.242Z,6.3
2022-09-30T06:10:01.129Z,6.2
2022-09-30T06:11:01.151Z,6.2
2022-09-30T06:12:01.147Z,6.3
2022-09-30T06:13:01.056Z,6.3
2022-09-30T06:14:01.118Z,6.4
2022-09-30T06:15:01.086Z,6.5
2022-09-30T06:16:00.736Z,6.5
2022-09-30T06:17:00.460Z,6.6
2022-09-30T06:18:00.040Z,6.6
2022-09-30T06:18:59.648Z,6.7
2022-09-30T06:20:01.770Z,6.7
2022-09-30T06:21:01.789Z,6.8
2022-09-30T06:22:01.150Z,6.8
2022-09-30T06:23:01.118Z,6.9
2022-09-30T06:24:01.115Z,7
2022-09-30T06:25:01.674Z,7
2022-09-30T06:26:01.334Z,7
2022-09-30T06:27:01.145Z,7
2022-09-30T06:28:01.153Z,7.1
2022-09-30T06:29:01.051Z,7.1
2022-09-30T06:30:01.054Z,7.1
2022-09-30T06:31:01.154Z,7.1
2022-09-30T06:32:01.172Z,7.2
2022-09-30T06:33:01.079Z,7.3
2022-09-30T06:34:00.559Z,7.3
2022-09-30T06:35:00.164Z,7.3
2022-09-30T06:35:59.770Z,7.4
2022-09-30T06:37:01.800Z,7.5
2022-09-30T06:38:01.118Z,7.5
2022-09-30T06:39:01.182Z,7.5
2022-09-30T06:40:01.118Z,7.6
2022-09-30T06:41:01.140Z,7.6
2022-09-30T06:42:01.507Z,7.6
2022-09-30T06:43:00.949Z,7.6
2022-09-30T06:44:09.285Z,7.7
2022-09-30T06:45:02.089Z,7.8
2022-09-30T06:46:13.512Z,7.8
2022-09-30T06:47:01.165Z,7.8
2022-09-30T06:48:01.513Z,7.8
2022-09-30T06:49:12.173Z,7.8
2022-09-30T06:50:04.512Z,7.8
2022-09-30T06:51:02.430Z,7.8
2022-09-30T06:52:01.108Z,7.8
2022-09-30T06:53:01.484Z,7.8
2022-09-30T06:54:02.334Z,7.9
2022-09-30T06:55:07.799Z,7.9
2022-09-30T06:56:01.023Z,8
2022-09-30T06:57:01.354Z,8
2022-09-30T06:58:01.158Z,8
2022-09-30T06:59:03.536Z,8
2022-09-30T07:00:10.236Z,8.1
2022-09-30T07:01:01.333Z,8.1
2022-09-30T07:02:02.113Z,8.1
2022-09-30T07:03:01.089Z,8.1
2022-09-30T07:04:01.085Z,8.1
2022-09-30T07:05:13.753Z,8.2
2022-09-30T07:06:01.095Z,8.2
2022-09-30T07:07:01.107Z,8.2
2022-09-30T07:08:01.118Z,8.3
2022-09-30T07:09:01.147Z,8.2
2022-09-30T07:10:16.053Z,8.2
2022-09-30T07:11:04.446Z,8.2
2022-09-30T07:12:01.219Z,8.2
2022-09-30T07:13:01.138Z,8.3
2022-09-30T07:14:00.516Z,8.3
2022-09-30T07:15:00.131Z,8.3
2022-09-30T07:16:00.252Z,8.3
2022-09-30T07:17:00.034Z,8.3
2022-09-30T07:17:59.731Z,8.3
2022-09-30T07:19:01.331Z,8.4
2022-09-30T07:20:01.275Z,8.4
2022-09-30T07:21:01.070Z,8.4
2022-09-30T07:22:00.780Z,8.5
2022-09-30T07:23:00.387Z,8.5
2022-09-30T07:23:59.955Z,8.5
2022-09-30T07:24:59.572Z,8.5
2022-09-30T07:26:01.135Z,8.6
2022-09-30T07:27:01.123Z,8.6
2022-09-30T07:28:01.291Z,8.8
2022-09-30T07:29:01.382Z,8.8
2022-09-30T07:30:09.554Z,8.9
2022-09-30T07:31:27.999Z,9
2022-09-30T07:32:01.238Z,9
2022-09-30T07:33:01.945Z,9.1
2022-09-30T07:34:00.804Z,9.1
2022-09-30T07:35:00.530Z,9.2
2022-09-30T07:36:00.389Z,9.3
2022-09-30T07:37:00.051Z,9.3
2022-09-30T07:37:59.780Z,9.3
2022-09-30T07:39:02.147Z,9.4
2022-09-30T07:40:01.426Z,9.5
2022-09-30T07:41:01.125Z,9.5
2022-09-30T07:42:01.111Z,9.5
2022-09-30T07:43:01.122Z,9.6
2022-09-30T07:44:01.122Z,9.6
2022-09-30T07:45:01.135Z,9.6
2022-09-30T07:46:01.192Z,9.6
2022-09-30T07:47:01.151Z,9.7
2022-09-30T07:48:01.151Z,9.7
2022-09-30T07:49:01.132Z,9.7
2022-09-30T07:50:01.146Z,9.7
2022-09-30T07:51:01.084Z,9.7
2022-09-30T07:52:03.405Z,9.7
2022-09-30T07:53:01.102Z,9.8
2022-09-30T07:54:01.064Z,9.8
2022-09-30T07:55:01.189Z,9.8
2022-09-30T07:56:00.799Z,9.8
2022-09-30T07:57:15.963Z,9.8
2022-09-30T07:58:01.496Z,9.8
2022-09-30T07:59:01.507Z,9.8
2022-09-30T08:00:17.071Z,9.8
2022-09-30T08:01:03.129Z,9.8
2022-09-30T08:02:01.224Z,9.8
2022-09-30T08:03:01.149Z,9.8
2022-09-30T08:04:01.047Z,9.8
2022-09-30T08:05:01.054Z,9.8
2022-09-30T08:06:01.184Z,9.8
2022-09-30T08:07:02.308Z,9.8
2022-09-30T08:08:01.303Z,9.8
2022-09-30T08:09:02.197Z,9.9
2022-09-30T08:10:02.225Z,9.9
2022-09-30T08:11:01.410Z,9.9
2022-09-30T08:12:01.054Z,10
2022-09-30T08:13:03.049Z,10
2022-09-30T08:14:01.406Z,10
2022-09-30T08:15:01.055Z,10.1
2022-09-30T08:16:01.024Z,10.1
2022-09-30T08:17:01.520Z,10.1
2022-09-30T08:18:02.186Z,10.2
2022-09-30T08:19:01.166Z,10.3
2022-09-30T08:20:03.858Z,10.3
2022-09-30T08:21:01.081Z,10.3
2022-09-30T08:23:01.079Z,10.4
2022-09-30T08:24:01.082Z,10.5
2022-09-30T08:25:01.102Z,10.5
2022-09-30T08:26:01.437Z,10.5
2022-09-30T08:27:01.170Z,10.5
2022-09-30T08:28:01.114Z,10.5
2022-09-30T08:29:01.121Z,10.5
2022-09-30T08:30:04.795Z,10.5
2022-09-30T08:31:01.871Z,10.5
2022-09-30T08:32:01.209Z,10.5
2022-09-30T08:33:01.156Z,10.5
2022-09-30T08:34:01.234Z,10.5
2022-09-30T08:35:01.297Z,10.5
2022-09-30T08:36:01.777Z,10.5
2022-09-30T08:37:04.910Z,10.5
2022-09-30T08:38:01.071Z,10.5
2022-09-30T08:39:01.087Z,10.5
2022-09-30T08:40:01.240Z,10.6
2022-09-30T08:41:05.560Z,10.6
2022-09-30T08:42:08.735Z,10.6
2022-09-30T08:43:02.169Z,10.7
2022-09-30T08:44:01.603Z,10.8
2022-09-30T08:45:01.116Z,10.8
2022-09-30T08:46:09.209Z,10.8
2022-09-30T08:47:01.346Z,10.8
2022-09-30T08:48:01.146Z,10.9
2022-09-30T08:49:03.405Z,10.9
2022-09-30T08:50:02.577Z,11
2022-09-30T08:51:10.492Z,11
2022-09-30T08:52:01.066Z,11
2022-09-30T08:53:01.452Z,11.1
2022-09-30T08:54:01.186Z,11.1
2022-09-30T08:55:00.864Z,11.1
2022-09-30T08:56:14.004Z,11.1
2022-09-30T08:57:01.085Z,11.2
2022-09-30T08:58:01.102Z,11.2
2022-09-30T08:59:01.112Z,11.2
2022-09-30T09:00:01.206Z,11.2
2022-09-30T09:01:16.288Z,11.3
2022-09-30T09:02:01.583Z,11.3
2022-09-30T09:03:01.164Z,11.3
2022-09-30T09:04:01.147Z,11.3
2022-09-30T09:05:01.064Z,11.2
2022-09-30T09:06:01.090Z,11.3
2022-09-30T09:07:01.194Z,11.2
2022-09-30T09:08:01.068Z,11.3
2022-09-30T09:09:01.100Z,11.3
2022-09-30T09:10:01.082Z,11.3
2022-09-30T09:11:01.088Z,11.3
2022-09-30T09:12:01.111Z,11.3
2022-09-30T09:13:01.149Z,11.3
2022-09-30T09:14:01.089Z,11.3
2022-09-30T09:15:01.202Z,11.3
2022-09-30T09:16:00.812Z,11.4
2022-09-30T09:17:00.499Z,11.5
2022-09-30T09:18:22.137Z,11.5
2022-09-30T09:19:01.721Z,11.5
2022-09-30T09:20:01.158Z,11.5
2022-09-30T09:21:01.144Z,11.6
2022-09-30T09:22:01.167Z,11.6
2022-09-30T09:23:01.308Z,11.6
2022-09-30T09:24:01.432Z,11.7
2022-09-30T09:25:02.068Z,11.7
2022-09-30T09:26:01.476Z,11.8
2022-09-30T09:27:01.098Z,11.8
2022-09-30T09:28:02.700Z,11.8
2022-09-30T09:29:01.111Z,11.8
2022-09-30T09:30:01.088Z,11.8
2022-09-30T09:31:01.056Z,11.9
2022-09-30T09:32:01.695Z,11.9
2022-09-30T09:33:02.544Z,12
2022-09-30T09:34:02.025Z,12
2022-09-30T09:35:01.137Z,12
2022-09-30T09:36:01.149Z,12.1
2022-09-30T09:37:01.187Z,12.2
2022-09-30T09:38:01.277Z,12.3
2022-09-30T09:39:01.897Z,12.3
2022-09-30T09:40:04.349Z,12.3
2022-09-30T09:41:01.082Z,12.3
2022-09-30T09:42:01.118Z,12.3
2022-09-30T09:43:01.077Z,12.3
2022-09-30T09:44:01.038Z,12.3
2022-09-30T09:45:01.116Z,12.4
2022-09-30T09:46:01.254Z,12.5
2022-09-30T09:47:01.330Z,12.5
2022-09-30T09:48:02.129Z,12.5
2022-09-30T09:49:04.098Z,12.5
2022-09-30T09:50:01.117Z,12.5
2022-09-30T09:51:01.396Z,12.5
2022-09-30T09:52:02.051Z,12.5
2022-09-30T09:53:02.042Z,12.6
2022-09-30T09:54:01.043Z,12.7
2022-09-30T09:55:01.263Z,12.8
2022-09-30T09:56:00.753Z,12.9
2022-09-30T09:57:00.354Z,12.9
2022-09-30T09:57:59.933Z,13
2022-09-30T09:58:59.639Z,13
2022-09-30T10:00:01.767Z,13
2022-09-30T10:01:02.548Z,13
2022-09-30T10:02:02.180Z,13.1
2022-09-30T10:03:01.936Z,13.1
2022-09-30T10:04:02.921Z,13.1
2022-09-30T10:05:01.130Z,13.1
2022-09-30T10:06:01.130Z,13.1
2022-09-30T10:07:01.042Z,13.1
2022-09-30T10:08:01.130Z,13.1
2022-09-30T10:09:01.393Z,13.1
2022-09-30T10:10:01.487Z,13.1
2022-09-30T10:11:04.126Z,13.1
2022-09-30T10:12:01.078Z,13.1
2022-09-30T10:13:01.067Z,13.1
2022-09-30T10:14:01.084Z,13.2
2022-09-30T10:15:01.046Z,13.3
2022-09-30T10:16:00.759Z,13.4
2022-09-30T10:17:00.357Z,13.4
2022-09-30T10:17:59.951Z,13.5
2022-09-30T10:18:59.594Z,13.5
2022-09-30T10:20:01.300Z,13.5
2022-09-30T10:21:04.022Z,13.5
2022-09-30T10:22:03.153Z,13.6
2022-09-30T10:23:01.131Z,13.6
2022-09-30T10:24:01.780Z,13.7
2022-09-30T10:25:01.154Z,13.8
2022-09-30T10:26:01.866Z,13.9
2022-09-30T10:27:05.404Z,14
2022-09-30T10:28:02.620Z,14
2022-09-30T10:29:01.117Z,14
2022-09-30T10:30:01.076Z,14
2022-09-30T10:31:01.430Z,14
2022-09-30T10:32:07.035Z,14
2022-09-30T10:33:01.098Z,13.9
2022-09-30T10:34:01.093Z,13.9
2022-09-30T10:35:01.304Z,13.8
2022-09-30T10:36:01.117Z,13.8
2022-09-30T10:37:11.018Z,13.8
2022-09-30T10:38:01.254Z,13.8
2022-09-30T10:39:04.185Z,13.7
2022-09-30T10:40:01.437Z,13.8
2022-09-30T10:41:01.241Z,13.8
2022-09-30T10:42:12.283Z,13.8
2022-09-30T10:43:01.249Z,13.8
2022-09-30T10:44:01.995Z,13.8
2022-09-30T10:45:00.984Z,13.9
2022-09-30T10:46:24.027Z,14
2022-09-30T10:47:15.033Z,14
2022-09-30T10:48:01.457Z,14
2022-09-30T10:49:01.124Z,14
2022-09-30T10:50:01.092Z,14
2022-09-30T10:51:01.224Z,14
2022-09-30T10:52:16.160Z,14
2022-09-30T10:53:01.496Z,14
2022-09-30T10:54:01.130Z,14
2022-09-30T10:55:01.129Z,14
2022-09-30T10:56:01.145Z,14
2022-09-30T10:57:01.139Z,14.1
2022-09-30T10:58:01.173Z,14.1
2022-09-30T10:59:01.046Z,14.1
2022-09-30T11:00:01.160Z,14.1
2022-09-30T11:01:01.073Z,14.1
2022-09-30T11:02:05.277Z,14.1
2022-09-30T11:03:01.988Z,14.1
2022-09-30T11:04:01.482Z,14.1
2022-09-30T11:05:01.091Z,14.2
2022-09-30T11:06:01.413Z,14.3
2022-09-30T11:07:02.030Z,14.3
2022-09-30T11:08:02.121Z,14.3
2022-09-30T11:09:01.139Z,14.3
2022-09-30T11:10:00.807Z,14.3
2022-09-30T11:11:00.522Z,14.3
2022-09-30T11:12:00.932Z,14.3
2022-09-30T11:13:01.162Z,14.3
2022-09-30T11:14:01.163Z,14.3
2022-09-30T11:15:01.055Z,14.3
2022-09-30T11:16:01.145Z,14.4
2022-09-30T11:17:01.981Z,14.4
2022-09-30T11:18:01.067Z,14.4
2022-09-30T11:19:01.080Z,14.4
2022-09-30T11:20:01.090Z,14.4
2022-09-30T11:21:01.097Z,14.4
2022-09-30T11:22:01.148Z,14.4
2022-09-30T11:23:01.216Z,14.4
2022-09-30T11:24:01.115Z,14.4
2022-09-30T11:25:01.121Z,14.5
2022-09-30T11:26:01.188Z,14.6
2022-09-30T11:27:01.125Z,14.6
2022-09-30T11:28:01.196Z,14.6
2022-09-30T11:29:01.242Z,14.6
2022-09-30T11:30:01.560Z,14.7
2022-09-30T11:31:04.912Z,14.6
2022-09-30T11:32:02.303Z,14.6
2022-09-30T11:33:01.075Z,14.6
2022-09-30T11:34:01.073Z,14.7
2022-09-30T11:35:01.093Z,14.8
2022-09-30T11:36:01.103Z,14.8
2022-09-30T11:37:01.049Z,14.9
2022-09-30T11:38:01.036Z,14.9
2022-09-30T11:39:01.489Z,15
2022-09-30T11:40:01.117Z,15
2022-09-30T11:41:02.030Z,15.1
2022-09-30T11:42:00.631Z,15.1
2022-09-30T11:43:01.541Z,15.1
2022-09-30T11:44:01.190Z,15.1
2022-09-30T11:45:01.048Z,15.1
2022-09-30T11:46:01.091Z,15.1
2022-09-30T11:47:01.066Z,15
2022-09-30T11:48:01.467Z,14.9
2022-09-30T11:49:01.079Z,14.9
2022-09-30T11:50:01.394Z,14.9
2022-09-30T11:51:01.098Z,14.9
2022-09-30T11:52:01.116Z,14.9
2022-09-30T11:53:01.381Z,14.9
2022-09-30T11:54:01.481Z,15
2022-09-30T11:55:02.574Z,15
2022-09-30T11:56:01.148Z,15.1
2022-09-30T11:57:01.168Z,15.1
2022-09-30T11:58:11.977Z,15.1
2022-09-30T11:59:01.129Z,15.1
2022-09-30T12:00:00.825Z,15.1
2022-09-30T12:01:01.142Z,15.2
2022-09-30T12:02:01.617Z,15.3
2022-09-30T12:03:01.511Z,15.3
2022-09-30T12:04:01.269Z,15.5
2022-09-30T12:05:01.958Z,15.5
2022-09-30T12:06:01.095Z,15.5
2022-09-30T12:07:01.083Z,15.5
2022-09-30T12:08:01.085Z,15.5
2022-09-30T12:09:01.098Z,15.5
2022-09-30T12:10:01.097Z,15.5
2022-09-30T12:11:01.205Z,15.5
2022-09-30T12:12:01.326Z,15.5
2022-09-30T12:13:01.833Z,15.5
2022-09-30T12:14:01.098Z,15.5
2022-09-30T12:15:01.072Z,15.5
2022-09-30T12:16:01.094Z,15.5
2022-09-30T12:17:01.158Z,15.6
2022-09-30T12:18:05.109Z,15.6
2022-09-30T12:19:01.875Z,15.6
2022-09-30T12:20:01.209Z,15.6
2022-09-30T12:21:01.170Z,15.6
2022-09-30T12:22:02.089Z,15.6
2022-09-30T12:23:07.612Z,15.6
2022-09-30T12:24:01.095Z,15.6
2022-09-30T12:25:01.099Z,15.6
2022-09-30T12:26:01.112Z,15.7
2022-09-30T12:27:01.125Z,15.8
2022-09-30T12:28:11.019Z,15.8
2022-09-30T12:29:03.648Z,15.8
2022-09-30T12:30:02.147Z,15.8
2022-09-30T12:31:01.464Z,15.9
2022-09-30T12:32:01.368Z,16
2022-09-30T12:33:15.191Z,16
2022-09-30T12:34:01.294Z,16.1
2022-09-30T12:35:01.307Z,16.1
2022-09-30T12:36:01.890Z,16.1
2022-09-30T12:37:02.078Z,16.1
2022-09-30T12:38:01.093Z,16.1
2022-09-30T12:39:01.092Z,16.1
2022-09-30T12:40:00.786Z,16.2
2022-09-30T12:41:00.380Z,16.2
2022-09-30T12:42:00.091Z,16.2
2022-09-30T12:42:59.777Z,16.2
2022-09-30T12:44:02.180Z,16.1
2022-09-30T12:45:02.187Z,16.1
2022-09-30T12:46:01.194Z,16
2022-09-30T12:47:02.941Z,16
2022-09-30T12:48:02.208Z,16
2022-09-30T12:49:01.165Z,16
2022-09-30T12:50:01.177Z,16
2022-09-30T12:51:01.180Z,16
2022-09-30T12:52:01.065Z,16
2022-09-30T12:53:01.131Z,16
2022-09-30T12:54:01.853Z,16
2022-09-30T12:55:01.180Z,16
2022-09-30T12:56:01.306Z,16
2022-09-30T12:57:01.050Z,16
2022-09-30T12:58:01.058Z,16
2022-09-30T12:59:01.056Z,16
2022-09-30T13:00:00.717Z,16
2022-09-30T13:01:01.208Z,16
2022-09-30T13:02:01.397Z,16
2022-09-30T13:03:02.044Z,16
2022-09-30T13:04:01.185Z,16.1
2022-09-30T13:05:01.153Z,16.1
2022-09-30T13:06:01.095Z,16.2
2022-09-30T13:07:01.230Z,16.3
2022-09-30T13:08:01.064Z,16.3
2022-09-30T13:09:01.062Z,16.3
2022-09-30T13:10:01.084Z,16.3
2022-09-30T13:11:01.099Z,16.2
2022-09-30T13:12:01.099Z,16.2
2022-09-30T13:13:01.414Z,16.1
2022-09-30T13:14:01.160Z,16.1
2022-09-30T13:15:01.146Z,16
2022-09-30T13:16:01.176Z,16
2022-09-30T13:17:01.218Z,16
2022-09-30T13:18:01.142Z,16
2022-09-30T13:19:01.148Z,16
2022-09-30T13:20:01.168Z,16
2022-09-30T13:21:01.054Z,16
2022-09-30T13:22:00.943Z,16
2022-09-30T13:23:00.948Z,16
2022-09-30T13:24:00.653Z,16
2022-09-30T13:25:00.448Z,16.1
2022-09-30T13:26:00.084Z,16.1
2022-09-30T13:26:59.752Z,16.1
2022-09-30T13:28:01.841Z,16.1
2022-09-30T13:29:02.421Z,16.1
2022-09-30T13:30:01.250Z,16.1
2022-09-30T13:31:01.253Z,16.1
2022-09-30T13:32:01.084Z,16.1
2022-09-30T13:33:01.035Z,16.1
2022-09-30T13:34:01.234Z,16.1
2022-09-30T13:35:01.072Z,16.1
2022-09-30T13:36:01.177Z,16.1
2022-09-30T13:37:01.781Z,16.1
2022-09-30T13:38:01.158Z,16.1
2022-09-30T13:39:01.199Z,16.1
2022-09-30T13:40:00.796Z,16.1
2022-09-30T13:41:03.097Z,16.2
2022-09-30T13:42:01.678Z,16.2
2022-09-30T13:43:01.082Z,16.2
2022-09-30T13:44:01.101Z,16.2
2022-09-30T13:45:01.118Z,16.1
2022-09-30T13:46:00.828Z,16.1